Time,TemperatureF,DewpointF,PressureIn,WindDirection,WindDirectionDegrees,WindSpeedMPH,WindSpeedGustMPH,Humidity,HourlyPrecipIn,Conditions,Clouds,dailyrainin,SolarRadiationWatts/m^2,SoftwareType,DateUTC
2013-06-01 00:01:00,67.9,64.0,30.05,SW,228,0.0,-999.0,87,-99.99,,,0.00,0,weatherlink.com 1.10,2013-06-01 04:01:00,
2013-06-01 00:16:00,67.4,64.0,30.05,SW,228,0.0,-999.0,87,-99.99,,,0.00,0,weatherlink.com 1.10,2013-06-01 04:16:00,
2013-06-01 00:31:00,67.0,63.0,30.05,SW,228,0.0,-999.0,88,-99.99,,,0.00,0,weatherlink.com 1.10,2013-06-01 04:31:00,
2013-06-01 00:46:00,66.6,63.0,30.05,SW,228,0.0,-999.0,89,-99.99,,,0.00,0,weatherlink.com 1.10,2013-06-01 04:46:00,
2013-06-01 01:01:00,66.1,63.0,30.05,SW,228,0.0,-999.0,90,-99.99,,,0.00,0,weatherlink.com 1.10,2013-06-01 05:01:00,
2013-06-01 01:16:00,65.8,63.0,30.05,SW,228,0.0,-999.0,90,-99.99,,,0.00,0,weatherlink.com 1.10,2013-06-01 05:16:00,
2013-06-01 01:31:00,65.4,63.0,30.05,SW,228,0.0,-999.0,90,-99.99,,,0.00,0,weatherlink.com 1.10,2013-06-01 05:31:00,
2013-06-01 01:46:00,65.0,62.0,30.04,SW,228,0.0,-999.0,91,-99.99,,,0.00,0,weatherlink.com 1.10,2013-06-01 05:46:00,
2013-06-01 02:01:00,64.7,62.0,30.04,SW,228,0.0,-999.0,91,-99.99,,,0.00,0,weatherlink.com 1.10,2013-06-01 06:01:00,
2013-06-01 02:16:00,64.3,62.0,30.04,SW,228,0.0,-999.0,92,-99.99,,,0.00,0,weatherlink.com 1.10,2013-06-01 06:16:00,
2013-06-01 02:31:00,64.0,62.0,30.04,SW,228,0.0,-999.0,92,-99.99,,,0.00,0,weatherlink.com 1.10,2013-06-01 06:31:00,
2013-06-01 02:46:00,63.7,61.0,30.04,SW,228,0.0,-999.0,92,-99.99,,,0.00,0,weatherlink.com 1.10,2013-06-01 06:46:00,
2013-06-01 03:01:00,63.4,61.0,30.03,SW,228,0.0,-999.0,92,-99.99,,,0.00,0,weatherlink.com 1.10,2013-06-01 07:01:00,
2013-06-01 03:16:00,63.1,61.0,30.03,SW,228,0.0,-999.0,92,-99.99,,,0.00,0,weatherlink.com 1.10,2013-06-01 07:16:00,
2013-06-01 03:31:00,62.9,61.0,30.03,SW,228,0.0,-999.0,92,-99.99,,,0.00,0,weatherlink.com 1.10,2013-06-01 07:31:00,
2013-06-01 03:46:00,62.6,61.0,30.03,SW,228,0.0,-999.0,93,-99.99,,,0.00,0,weatherlink.com 1.10,2013-06-01 07:46:00,
2013-06-01 04:01:00,62.4,60.0,30.03,SW,228,0.0,-999.0,93,-99.99,,,0.00,0,weatherlink.com 1.10,2013-06-01 08:01:00,
2013-06-01 04:16:00,62.2,60.0,30.03,SW,228,0.0,-999.0,93,-99.99,,,0.00,0,weatherlink.com 1.10,2013-06-01 08:16:00,
2013-06-01 04:31:00,61.9,60.0,30.03,SW,228,0.0,-999.0,93,-99.99,,,0.00,0,weatherlink.com 1.10,2013-06-01 08:31:00,
2013-06-01 04:46:00,61.6,60.0,30.04,SW,228,0.0,-999.0,93,-99.99,,,0.00,0,weatherlink.com 1.10,2013-06-01 08:46:00,
2013-06-01 05:01:00,61.4,59.0,30.03,SW,228,0.0,-999.0,93,-99.99,,,0.00,0,weatherlink.com 1.10,2013-06-01 09:01:00,
2013-06-01 05:16:00,61.2,59.0,30.04,SW,228,0.0,-999.0,93,-99.99,,,0.00,0,weatherlink.com 1.10,2013-06-01 09:16:00,
2013-06-01 05:31:00,61.1,59.0,30.03,SW,228,0.0,-999.0,93,-99.99,,,0.00,0,weatherlink.com 1.10,2013-06-01 09:31:00,
2013-06-01 05:46:00,60.9,59.0,30.04,SW,228,0.0,-999.0,93,-99.99,,,0.00,7,weatherlink.com 1.10,2013-06-01 09:46:00,
2013-06-01 06:01:00,60.8,59.0,30.04,SW,228,0.0,-999.0,94,-99.99,,,0.00,12,weatherlink.com 1.10,2013-06-01 10:01:00,
2013-06-01 06:16:00,60.8,59.0,30.04,SW,228,0.0,-999.0,94,-99.99,,,0.00,19,weatherlink.com 1.10,2013-06-01 10:16:00,
2013-06-01 06:31:00,61.2,60.0,30.05,SW,228,0.0,-999.0,94,-99.99,,,0.00,26,weatherlink.com 1.10,2013-06-01 10:31:00,
2013-06-01 06:46:00,61.4,60.0,30.05,SW,228,0.0,-999.0,95,-99.99,,,0.00,33,weatherlink.com 1.10,2013-06-01 10:46:00,
2013-06-01 07:01:00,61.7,60.0,30.05,SW,228,0.0,-999.0,95,-99.99,,,0.00,39,weatherlink.com 1.10,2013-06-01 11:01:00,
2013-06-01 07:16:00,62.6,61.0,30.05,SW,228,0.0,-999.0,95,-99.99,,,0.00,46,weatherlink.com 1.10,2013-06-01 11:16:00,
2013-06-01 07:31:00,64.7,64.0,30.05,SW,228,0.0,-999.0,96,-99.99,,,0.00,251,weatherlink.com 1.10,2013-06-01 11:31:00,
2013-06-01 07:46:00,67.4,66.0,30.05,SW,228,0.0,-999.0,96,-99.99,,,0.00,292,weatherlink.com 1.10,2013-06-01 11:46:00,
2013-06-01 08:01:00,68.8,68.0,30.05,SW,228,0.0,-999.0,96,-99.99,,,0.00,339,weatherlink.com 1.10,2013-06-01 12:01:00,
2013-06-01 08:16:00,69.9,69.0,30.05,SW,228,0.0,-999.0,96,-99.99,,,0.00,392,weatherlink.com 1.10,2013-06-01 12:16:00,
2013-06-01 08:31:00,71.7,70.0,30.04,SW,224,3.0,-999.0,94,-99.99,,,0.00,455,weatherlink.com 1.10,2013-06-01 12:31:00,
2013-06-01 08:46:00,74.5,70.0,30.04,WSW,242,0.0,-999.0,85,-99.99,,,0.00,501,weatherlink.com 1.10,2013-06-01 12:46:00,
2013-06-01 09:01:00,77.4,69.0,30.04,SW,233,1.0,-999.0,76,-99.99,,,0.00,541,weatherlink.com 1.10,2013-06-01 13:01:00,
2013-06-01 09:16:00,79.1,69.0,30.04,NNW,343,1.0,-999.0,71,-99.99,,,0.00,585,weatherlink.com 1.10,2013-06-01 13:16:00,
2013-06-01 09:31:00,80.3,69.0,30.04,West,263,3.0,-999.0,68,-99.99,,,0.00,626,weatherlink.com 1.10,2013-06-01 13:31:00,
2013-06-01 09:46:00,81.2,69.0,30.03,SSE,151,1.0,-999.0,66,-99.99,,,0.00,664,weatherlink.com 1.10,2013-06-01 13:46:00,
2013-06-01 10:01:00,83.2,69.0,30.03,SW,219,0.0,-999.0,63,-99.99,,,0.00,698,weatherlink.com 1.10,2013-06-01 14:01:00,
2013-06-01 10:16:00,84.0,70.0,30.03,WSW,237,0.0,-999.0,62,-99.99,,,0.00,737,weatherlink.com 1.10,2013-06-01 14:16:00,
2013-06-01 10:31:00,84.6,70.0,30.02,SSW,203,0.0,-999.0,61,-99.99,,,0.00,766,weatherlink.com 1.10,2013-06-01 14:31:00,
2013-06-01 10:46:00,84.8,69.0,30.03,SSE,151,7.0,-999.0,59,-99.99,,,0.00,791,weatherlink.com 1.10,2013-06-01 14:46:00,
2013-06-01 11:01:00,85.3,70.0,30.02,SW,214,0.0,-999.0,61,-99.99,,,0.00,823,weatherlink.com 1.10,2013-06-01 15:01:00,
2013-06-01 11:16:00,86.2,70.0,30.02,WSW,242,0.0,-999.0,58,-99.99,,,0.00,847,weatherlink.com 1.10,2013-06-01 15:16:00,
2013-06-01 11:31:00,87.4,70.0,30.02,SSE,167,0.0,-999.0,57,-99.99,,,0.00,865,weatherlink.com 1.10,2013-06-01 15:31:00,
2013-06-01 11:46:00,88.9,71.0,30.02,WNW,301,0.0,-999.0,56,-99.99,,,0.00,882,weatherlink.com 1.10,2013-06-01 15:46:00,
2013-06-01 12:01:00,89.4,71.0,30.02,NE,40,3.0,-999.0,54,-99.99,,,0.00,905,weatherlink.com 1.10,2013-06-01 16:01:00,
2013-06-01 12:16:00,89.0,70.0,30.01,WSW,246,2.0,-999.0,54,-99.99,,,0.00,912,weatherlink.com 1.10,2013-06-01 16:16:00,
2013-06-01 12:31:00,89.6,70.0,30.00,SSW,211,3.0,-999.0,53,-99.99,,,0.00,925,weatherlink.com 1.10,2013-06-01 16:31:00,
2013-06-01 12:46:00,90.5,71.0,30.00,WSW,241,4.0,-999.0,52,-99.99,,,0.00,937,weatherlink.com 1.10,2013-06-01 16:46:00,
2013-06-01 13:02:00,90.4,72.0,29.99,SSW,212,0.0,-999.0,54,-99.99,,,0.00,283,weatherlink.com 1.10,2013-06-01 17:02:00,
2013-06-01 13:16:00,90.8,72.0,29.99,South,191,7.0,-999.0,55,-99.99,,,0.00,981,weatherlink.com 1.10,2013-06-01 17:16:00,
2013-06-01 13:31:00,89.9,72.0,29.98,WSW,250,0.0,-999.0,55,-99.99,,,0.00,939,weatherlink.com 1.10,2013-06-01 17:31:00,
2013-06-01 13:46:00,89.9,71.0,29.98,West,267,1.0,-999.0,54,-99.99,,,0.00,232,weatherlink.com 1.10,2013-06-01 17:46:00,
2013-06-01 14:01:00,89.8,71.0,29.98,West,261,2.0,-999.0,54,-99.99,,,0.00,921,weatherlink.com 1.10,2013-06-01 18:01:00,
2013-06-01 14:16:00,90.0,71.0,29.98,SSW,193,3.0,-999.0,53,-99.99,,,0.00,916,weatherlink.com 1.10,2013-06-01 18:16:00,
2013-06-01 14:31:00,90.4,70.0,29.98,SW,233,2.0,-999.0,51,-99.99,,,0.00,877,weatherlink.com 1.10,2013-06-01 18:31:00,
2013-06-01 14:46:00,90.1,71.0,29.98,SW,225,5.0,-999.0,53,-99.99,,,0.00,904,weatherlink.com 1.10,2013-06-01 18:46:00,
2013-06-01 15:01:00,90.5,71.0,29.97,SW,229,2.0,-999.0,52,-99.99,,,0.00,823,weatherlink.com 1.10,2013-06-01 19:01:00,
2013-06-01 15:16:00,91.5,70.0,29.97,South,169,2.0,-999.0,50,-99.99,,,0.00,775,weatherlink.com 1.10,2013-06-01 19:16:00,
2013-06-01 15:31:00,91.2,69.0,29.96,SSW,205,5.0,-999.0,49,-99.99,,,0.00,773,weatherlink.com 1.10,2013-06-01 19:31:00,
2013-06-01 15:46:00,91.2,70.0,29.96,West,279,1.0,-999.0,50,-99.99,,,0.00,722,weatherlink.com 1.10,2013-06-01 19:46:00,
2013-06-01 16:01:00,90.9,69.0,29.96,WSW,240,0.0,-999.0,48,-99.99,,,0.00,677,weatherlink.com 1.10,2013-06-01 20:01:00,
2013-06-01 16:16:00,90.6,70.0,29.96,West,264,2.0,-999.0,51,-99.99,,,0.00,684,weatherlink.com 1.10,2013-06-01 20:16:00,
2013-06-01 16:31:00,89.6,70.0,29.96,WSW,244,1.0,-999.0,52,-99.99,,,0.00,624,weatherlink.com 1.10,2013-06-01 20:31:00,
2013-06-01 16:46:00,89.9,69.0,29.95,WSW,241,7.0,-999.0,50,-99.99,,,0.00,557,weatherlink.com 1.10,2013-06-01 20:46:00,
2013-06-01 17:01:00,89.1,69.0,29.95,SSE,162,1.0,-999.0,52,-99.99,,,0.00,519,weatherlink.com 1.10,2013-06-01 21:01:00,
2013-06-01 17:16:00,88.7,69.0,29.95,West,263,0.0,-999.0,53,-99.99,,,0.00,471,weatherlink.com 1.10,2013-06-01 21:16:00,
2013-06-01 17:31:00,88.0,69.0,29.95,WSW,240,6.0,-999.0,54,-99.99,,,0.00,424,weatherlink.com 1.10,2013-06-01 21:31:00,
2013-06-01 17:46:00,87.3,69.0,29.94,SW,223,3.0,-999.0,55,-99.99,,,0.00,380,weatherlink.com 1.10,2013-06-01 21:46:00,
2013-06-01 18:01:00,86.3,70.0,29.94,West,273,3.0,-999.0,58,-99.99,,,0.00,77,weatherlink.com 1.10,2013-06-01 22:01:00,
2013-06-01 18:16:00,85.5,69.0,29.94,SW,225,0.0,-999.0,58,-99.99,,,0.00,62,weatherlink.com 1.10,2013-06-01 22:16:00,
2013-06-01 18:31:00,84.9,68.0,29.94,WSW,255,2.0,-999.0,58,-99.99,,,0.00,58,weatherlink.com 1.10,2013-06-01 22:31:00,
2013-06-01 18:46:00,84.4,68.0,29.94,SSW,200,1.0,-999.0,58,-99.99,,,0.00,51,weatherlink.com 1.10,2013-06-01 22:46:00,
2013-06-01 19:01:00,84.0,69.0,29.94,SW,229,2.0,-999.0,60,-99.99,,,0.00,47,weatherlink.com 1.10,2013-06-01 23:01:00,
2013-06-01 19:16:00,83.6,69.0,29.94,SW,220,1.0,-999.0,61,-99.99,,,0.00,40,weatherlink.com 1.10,2013-06-01 23:16:00,
2013-06-01 19:31:00,83.2,69.0,29.94,WSW,239,3.0,-999.0,63,-99.99,,,0.00,21,weatherlink.com 1.10,2013-06-01 23:31:00,
2013-06-01 19:46:00,82.5,69.0,29.94,WSW,238,0.0,-999.0,64,-99.99,,,0.00,11,weatherlink.com 1.10,2013-06-01 23:46:00,
2013-06-01 20:01:00,81.9,69.0,29.94,SW,235,0.0,-999.0,66,-99.99,,,0.00,7,weatherlink.com 1.10,2013-06-02 00:01:00,
2013-06-01 20:16:00,81.3,70.0,29.93,SW,235,0.0,-999.0,68,-99.99,,,0.00,0,weatherlink.com 1.10,2013-06-02 00:16:00,
2013-06-01 20:31:00,80.5,70.0,29.94,SSW,213,0.0,-999.0,70,-99.99,,,0.00,0,weatherlink.com 1.10,2013-06-02 00:31:00,
2013-06-01 20:46:00,79.5,70.0,29.93,SSW,213,0.0,-999.0,72,-99.99,,,0.00,0,weatherlink.com 1.10,2013-06-02 00:46:00,
2013-06-01 21:01:00,78.4,70.0,29.93,SW,214,0.0,-999.0,74,-99.99,,,0.00,0,weatherlink.com 1.10,2013-06-02 01:01:00,
2013-06-01 21:16:00,77.3,69.0,29.93,SW,214,0.0,-999.0,76,-99.99,,,0.00,0,weatherlink.com 1.10,2013-06-02 01:16:00,
2013-06-01 21:31:00,76.6,69.0,29.94,SSW,213,0.0,-999.0,77,-99.99,,,0.00,0,weatherlink.com 1.10,2013-06-02 01:31:00,
2013-06-01 21:46:00,76.1,69.0,29.94,SSW,213,0.0,-999.0,79,-99.99,,,0.00,0,weatherlink.com 1.10,2013-06-02 01:46:00,
2013-06-01 22:01:00,75.6,69.0,29.94,SSW,213,0.0,-999.0,80,-99.99,,,0.00,0,weatherlink.com 1.10,2013-06-02 02:01:00,
2013-06-01 22:16:00,74.9,69.0,29.94,SSW,213,0.0,-999.0,81,-99.99,,,0.00,0,weatherlink.com 1.10,2013-06-02 02:16:00,
2013-06-01 22:31:00,74.2,68.0,29.94,SSW,211,0.0,-999.0,82,-99.99,,,0.00,0,weatherlink.com 1.10,2013-06-02 02:31:00,
2013-06-01 22:46:00,73.9,69.0,29.94,SSW,211,0.0,-999.0,83,-99.99,,,0.00,0,weatherlink.com 1.10,2013-06-02 02:46:00,
2013-06-01 23:02:00,73.7,68.0,29.94,SW,232,3.0,-999.0,83,-99.99,,,0.00,0,weatherlink.com 1.10,2013-06-02 03:02:00,
2013-06-01 23:17:00,74.0,69.0,29.94,SW,230,0.0,-999.0,83,-99.99,,,0.00,0,weatherlink.com 1.10,2013-06-02 03:17:00,